Time;durP1;ratioP1;P1;durP2;ratioP2;P2;SDS_P1;SDS_P2;PMS_P1;PMS_P2;Temp;Humidity;BMP_temperature;BMP_pressure;BME280_temperature;BME280_humidity;BME280_pressure;Samples;Min_cycle;Max_cycle;Signal;HPM_P1;HPM_P2
2022/06/27 00:00:49;;;;;;;6.65;3.97;;;19.00;99.90;;;;;;5074540;28;20640;-80
2022/06/27 00:03:15;;;;;;;4.82;3.40;;;18.90;99.90;;;;;;5091666;28;20207;-81
2022/06/27 00:05:41;;;;;;;5.90;3.67;;;18.90;99.90;;;;;;5097991;28;20172;-81
2022/06/27 00:08:06;;;;;;;6.88;4.00;;;18.90;99.90;;;;;;5098543;28;20171;-80
2022/06/27 00:10:32;;;;;;;6.10;3.65;;;18.80;99.90;;;;;;5097868;28;20194;-81
2022/06/27 00:12:58;;;;;;;4.07;3.22;;;18.80;99.90;;;;;;5080729;28;20179;-80
2022/06/27 00:15:24;;;;;;;4.57;3.33;;;18.70;99.90;;;;;;5073311;28;20557;-80
2022/06/27 00:17:50;;;;;;;5.40;3.42;;;18.70;99.90;;;;;;5089453;28;20163;-81
2022/06/27 00:20:15;;;;;;;4.00;3.42;;;18.70;99.90;;;;;;5098270;28;20193;-84
2022/06/27 00:22:41;;;;;;;5.20;3.80;;;18.70;99.90;;;;;;5098180;28;20171;-80
2022/06/27 00:25:08;;;;;;;5.40;3.97;;;18.60;99.90;;;;;;5090718;28;20202;-80
2022/06/27 00:27:34;;;;;;;5.53;3.75;;;18.60;99.90;;;;;;5072315;28;20259;-80
2022/06/27 00:30:00;;;;;;;3.47;3.00;;;18.60;99.90;;;;;;5073438;28;20266;-80
2022/06/27 00:32:26;;;;;;;5.47;3.55;;;18.60;99.90;;;;;;5073005;28;20175;-80
2022/06/27 00:34:52;;;;;;;4.65;3.65;;;18.50;99.90;;;;;;5055191;28;20594;-80
2022/06/27 00:37:18;;;;;;;4.57;3.85;;;18.50;99.90;;;;;;5073124;28;20198;-80
2022/06/27 00:39:44;;;;;;;7.68;4.30;;;18.50;99.90;;;;;;5073398;28;20672;-80
2022/06/27 00:42:10;;;;;;;4.63;3.47;;;18.60;99.90;;;;;;5073244;28;20216;-80
2022/06/27 00:44:39;;;;;;;6.25;3.28;;;18.50;99.90;;;;;;5072946;28;20187;-80
2022/06/27 00:47:07;;;;;;;3.90;2.95;;;18.50;99.90;;;;;;5073128;28;20178;-80
2022/06/27 00:49:34;;;;;;;5.68;3.70;;;18.50;99.90;;;;;;5072782;28;20190;-80
2022/06/27 00:52:00;;;;;;;4.78;3.20;;;18.50;99.90;;;;;;5073302;28;20179;-80
2022/06/27 00:54:26;;;;;;;3.85;3.20;;;18.50;99.90;;;;;;5072846;28;20184;-80
2022/06/27 00:56:53;;;;;;;5.78;3.20;;;18.50;99.90;;;;;;5073185;28;20233;-80
2022/06/27 00:59:19;;;;;;;5.32;3.78;;;18.50;99.90;;;;;;5071587;28;20253;-80
2022/06/27 01:01:45;;;;;;;5.55;3.45;;;18.40;99.90;;;;;;5071718;28;20207;-80
2022/06/27 01:04:11;;;;;;;5.82;3.72;;;18.40;99.90;;;;;;5072572;28;20179;-80
2022/06/27 01:06:37;;;;;;;4.70;3.35;;;18.40;99.90;;;;;;5071456;28;20188;-80
2022/06/27 01:09:04;;;;;;;5.00;3.03;;;18.30;99.90;;;;;;5072921;28;20183;-80
2022/06/27 01:11:30;;;;;;;4.65;3.25;;;18.30;99.90;;;;;;5071406;28;20191;-80
2022/06/27 01:13:56;;;;;;;4.43;3.50;;;18.30;99.90;;;;;;5072734;28;20175;-80
2022/06/27 01:16:23;;;;;;;5.68;3.47;;;18.30;99.90;;;;;;5072392;28;20191;-80
2022/06/27 01:18:49;;;;;;;6.30;3.50;;;18.30;99.90;;;;;;5072335;28;20258;-80
2022/06/27 01:21:25;;;;;;;5.88;3.40;;;18.30;99.90;;;;;;5072732;28;20174;-80
2022/06/27 01:23:52;;;;;;;5.07;3.63;;;18.20;99.90;;;;;;5072841;28;20172;-80
2022/06/27 01:26:19;;;;;;;3.42;3.10;;;18.20;99.90;;;;;;5071782;28;20171;-80
2022/06/27 01:28:45;;;;;;;5.03;3.40;;;18.10;99.90;;;;;;5076420;28;20179;-80
2022/06/27 01:31:12;;;;;;;5.05;3.47;;;18.10;99.90;;;;;;5076246;28;20220;-80
2022/06/27 01:33:38;;;;;;;7.60;3.85;;;18.10;99.90;;;;;;5075807;28;20274;-80
2022/06/27 01:38:50;;;;;;;3.90;2.83;;;18.00;99.90;;;;;;5075987;28;20209;-80
2022/06/27 01:41:16;;;;;;;3.97;2.85;;;18.00;99.90;;;;;;5076129;28;20256;-80
2022/06/27 01:43:42;;;;;;;4.93;3.10;;;17.90;99.90;;;;;;5075994;28;20179;-80
2022/06/27 01:46:07;;;;;;;6.45;3.83;;;17.70;99.90;;;;;;5076308;28;20183;-80
2022/06/27 01:48:34;;;;;;;6.57;3.75;;;17.90;99.90;;;;;;5075581;28;20179;-80
2022/06/27 01:51:01;;;;;;;5.63;3.67;;;17.90;99.90;;;;;;5075829;28;20179;-80
2022/06/27 01:53:29;;;;;;;5.72;3.97;;;17.90;99.90;;;;;;5075691;28;20270;-80
2022/06/27 01:55:55;;;;;;;4.63;3.08;;;17.80;99.90;;;;;;5077047;28;20199;-80
2022/06/27 01:58:21;;;;;;;5.28;3.38;;;17.80;99.90;;;;;;5078603;28;20207;-81
2022/06/27 02:00:46;;;;;;;4.40;3.00;;;17.70;99.90;;;;;;5075696;28;20180;-80
2022/06/27 02:03:13;;;;;;;6.18;3.60;;;;;;;;;;5074595;28;20655;-80
2022/06/27 02:05:38;;;;;;;4.65;3.20;;;17.70;99.90;;;;;;5075333;28;20176;-80
2022/06/27 02:08:04;;;;;;;4.70;3.53;;;17.70;99.90;;;;;;5075549;28;20594;-79
2022/06/27 02:10:30;;;;;;;4.88;3.53;;;17.70;99.90;;;;;;5075312;28;20179;-80
2022/06/27 02:12:56;;;;;;;6.60;3.80;;;17.70;99.90;;;;;;5075459;28;20541;-80
2022/06/27 02:15:22;;;;;;;4.45;3.30;;;17.60;99.90;;;;;;5075508;28;20179;-80
2022/06/27 02:17:48;;;;;;;6.00;4.03;;;17.60;99.90;;;;;;5073501;28;20214;-80
2022/06/27 02:20:14;;;;;;;5.30;3.58;;;17.60;99.90;;;;;;5075111;28;20594;-80
2022/06/27 02:22:40;;;;;;;6.50;3.58;;;17.70;99.90;;;;;;5075128;28;20232;-80
2022/06/27 02:25:06;;;;;;;5.63;3.47;;;17.70;99.90;;;;;;5075214;28;20258;-80
2022/06/27 02:27:34;;;;;;;4.13;3.20;;;17.70;99.90;;;;;;5074991;28;20324;-80
2022/06/27 02:30:01;;;;;;;5.13;3.58;;;17.70;99.90;;;;;;5075257;28;20183;-79
2022/06/27 02:32:28;;;;;;;6.45;3.70;;;17.60;99.90;;;;;;5075125;28;20328;-79
2022/06/27 02:34:57;;;;;;;5.35;3.53;;;17.60;99.90;;;;;;5073823;28;20187;-79
2022/06/27 02:37:23;;;;;;;3.55;2.70;;;17.60;99.90;;;;;;5074836;28;20628;-80
2022/06/27 02:39:50;;;;;;;6.50;4.18;;;17.60;99.90;;;;;;5073509;28;20551;-80
2022/06/27 02:42:20;;;;;;;4.07;3.45;;;17.60;99.90;;;;;;5074855;28;20656;-79
2022/06/27 02:44:48;;;;;;;6.32;4.07;;;17.60;99.90;;;;;;5074502;28;20172;-79
2022/06/27 02:47:14;;;;;;;9.80;4.03;;;17.60;99.90;;;;;;5074696;28;20175;-79
2022/06/27 02:49:41;;;;;;;5.68;4.03;;;17.60;99.90;;;;;;5074482;28;20718;-80
2022/06/27 02:52:15;;;;;;;6.95;3.38;;;17.60;99.90;;;;;;5074687;28;20225;-79
2022/06/27 02:54:56;;;;;;;5.15;4.20;;;17.70;99.90;;;;;;5074530;28;20209;-80
2022/06/27 02:57:37;;;;;;;6.32;4.25;;;17.70;99.90;;;;;;5074715;28;20164;-79
2022/06/27 03:00:07;;;;;;;6.93;4.13;;;17.70;99.90;;;;;;5074872;28;20218;-79
2022/06/27 03:02:33;;;;;;;7.43;4.35;;;17.70;99.90;;;;;;5074397;28;20681;-80
2022/06/27 03:04:59;;;;;;;5.05;4.03;;;17.80;99.90;;;;;;5074693;28;20175;-79
2022/06/27 03:07:24;;;;;;;5.68;3.97;;;17.80;99.90;;;;;;5074688;28;20190;-80
2022/06/27 03:09:50;;;;;;;4.78;3.63;;;17.90;99.90;;;;;;5074434;28;20183;-79
2022/06/27 03:12:16;;;;;;;4.38;3.88;;;17.90;99.90;;;;;;5074049;28;20522;-79
2022/06/27 03:14:41;;;;;;;6.05;3.95;;;18.00;99.90;;;;;;5072856;28;20191;-80
2022/06/27 03:17:07;;;;;;;6.13;4.10;;;18.00;99.90;;;;;;5072874;28;20594;-80
2022/06/27 03:19:33;;;;;;;4.25;3.58;;;;;;;;;;5072949;28;20227;-79
2022/06/27 03:21:58;;;;;;;4.88;3.38;;;18.20;99.90;;;;;;5073058;28;20542;-81
2022/06/27 03:24:24;;;;;;;5.47;3.92;;;18.20;99.90;;;;;;5072823;28;20277;-79
2022/06/27 03:26:49;;;;;;;6.30;4.72;;;18.30;99.90;;;;;;5073380;28;20175;-80
2022/06/27 03:29:15;;;;;;;5.55;4.30;;;18.30;99.90;;;;;;5067537;28;20265;-81
2022/06/27 03:31:41;;;;;;;5.60;3.88;;;18.30;99.90;;;;;;5053703;28;20655;-80
2022/06/27 03:34:07;;;;;;;4.82;3.53;;;;;;;;;;5059335;28;20183;-80
2022/06/27 03:36:33;;;;;;;4.57;3.63;;;18.50;99.90;;;;;;5062710;28;20186;-79
2022/06/27 03:38:59;;;;;;;6.15;4.10;;;18.50;99.90;;;;;;5073238;28;20578;-80
2022/06/27 03:41:24;;;;;;;5.35;4.00;;;18.60;99.90;;;;;;5055951;28;20179;-80
2022/06/27 03:43:50;;;;;;;5.28;3.78;;;18.70;99.90;;;;;;5068467;28;20237;-80
2022/06/27 03:46:16;;;;;;;4.40;3.65;;;18.70;99.90;;;;;;5071867;28;20649;-81
2022/06/27 03:51:26;;;;;;;4.13;3.72;;;18.90;99.90;;;;;;5058903;28;20236;-79
2022/06/27 03:53:52;;;;;;;4.82;3.53;;;18.90;99.90;;;;;;5073539;28;20179;-81
2022/06/27 03:56:19;;;;;;;5.50;3.78;;;19.00;99.90;;;;;;5073888;28;20175;-80
2022/06/27 03:58:45;;;;;;;7.53;3.53;;;19.10;99.90;;;;;;5073310;28;20210;-81
2022/06/27 04:01:11;;;;;;;5.78;3.45;;;19.50;99.90;;;;;;5073205;28;20232;-80
2022/06/27 04:03:36;;;;;;;5.55;3.08;;;19.20;99.90;;;;;;5072178;28;20187;-81
2022/06/27 04:06:02;;;;;;;4.97;3.60;;;19.40;99.90;;;;;;5073276;28;20175;-80
2022/06/27 04:08:28;;;;;;;4.95;2.92;;;;;;;;;;5071945;28;20215;-81
2022/06/27 04:10:55;;;;;;;5.05;3.75;;;19.50;99.90;;;;;;5073231;28;20167;-81
2022/06/27 04:13:21;;;;;;;3.63;3.25;;;19.60;99.90;;;;;;5073358;28;20179;-80
2022/06/27 04:15:46;;;;;;;4.80;3.40;;;19.70;99.90;;;;;;5073059;28;20197;-81
2022/06/27 04:18:12;;;;;;;4.70;3.65;;;;;;;;;;5072539;28;20371;-81
2022/06/27 04:20:38;;;;;;;6.85;3.35;;;;;;;;;;5073612;28;20182;-80
2022/06/27 04:23:04;;;;;;;5.43;3.92;;;19.90;99.90;;;;;;5072400;28;20186;-79
2022/06/27 04:25:30;;;;;;;3.53;3.15;;;20.00;99.90;;;;;;5073359;28;20175;-80
2022/06/27 04:27:55;;;;;;;5.07;3.45;;;20.10;99.90;;;;;;5073074;28;20301;-79
2022/06/27 04:30:21;;;;;;;4.47;3.17;;;20.10;99.90;;;;;;5071973;28;20541;-79
2022/06/27 04:32:50;;;;;;;4.15;3.40;;;20.20;99.90;;;;;;5072942;28;20198;-79
2022/06/27 04:35:16;;;;;;;3.53;3.22;;;20.30;99.90;;;;;;5072789;28;20625;-79
2022/06/27 04:37:43;;;;;;;4.18;2.83;;;20.40;99.90;;;;;;5072892;28;20170;-80
2022/06/27 04:40:13;;;;;;;4.13;2.88;;;20.50;99.90;;;;;;5071129;28;20249;-81
2022/06/27 04:42:40;;;;;;;6.85;2.95;;;20.60;99.90;;;;;;5072302;28;20202;-81
2022/06/27 04:45:13;;;;;;;3.25;2.50;;;20.70;99.90;;;;;;5070770;28;20178;-80
2022/06/27 04:47:42;;;;;;;3.60;3.22;;;20.90;99.90;;;;;;5072347;28;20160;-79
2022/06/27 04:50:13;;;;;;;4.32;3.00;;;21.00;99.90;;;;;;5070519;28;20953;-80
2022/06/27 04:52:39;;;;;;;4.53;3.00;;;21.10;99.90;;;;;;5068360;28;20243;-81
2022/06/27 04:55:10;;;;;;;4.88;2.80;;;21.20;99.90;;;;;;5069498;28;20183;-79
2022/06/27 04:57:37;;;;;;;3.67;3.13;;;21.30;99.90;;;;;;5068889;28;20171;-80
2022/06/27 05:00:09;;;;;;;5.15;3.70;;;21.40;99.90;;;;;;5070899;28;20207;-79
2022/06/27 05:02:35;;;;;;;4.60;3.50;;;21.50;99.90;;;;;;5070184;28;20719;-79
2022/06/27 05:05:02;;;;;;;3.67;2.67;;;21.40;99.90;;;;;;5066526;28;20277;-79
2022/06/27 05:07:28;;;;;;;5.43;3.17;;;21.50;99.90;;;;;;5072816;28;20282;-79
2022/06/27 05:09:56;;;;;;;7.00;2.80;;;21.50;99.90;;;;;;5070613;28;20237;-80
2022/06/27 05:12:22;;;;;;;3.90;3.03;;;21.40;99.90;;;;;;5072394;28;20171;-79
2022/06/27 05:14:48;;;;;;;2.72;2.47;;;21.40;99.90;;;;;;5071916;28;20228;-83
2022/06/27 05:17:13;;;;;;;3.45;2.80;;;21.50;99.90;;;;;;5060873;28;20184;-79
2022/06/27 05:19:39;;;;;;;3.92;2.97;;;21.40;99.90;;;;;;5070696;28;20238;-79
2022/06/27 05:22:05;;;;;;;3.00;2.60;;;21.40;99.90;;;;;;5063543;28;21030;-80
2022/06/27 05:24:30;;;;;;;3.85;3.17;;;21.40;99.90;;;;;;5046089;28;20676;-84
2022/06/27 05:26:57;;;;;;;3.65;2.60;;;21.50;99.90;;;;;;5068334;28;20175;-80
2022/06/27 05:29:23;;;;;;;3.53;2.65;;;21.40;99.90;;;;;;5069668;28;20714;-79
2022/06/27 05:31:49;;;;;;;8.25;2.53;;;21.50;99.90;;;;;;5070634;28;20179;-82
2022/06/27 05:34:15;;;;;;;2.88;2.30;;;21.50;99.90;;;;;;5065108;28;20322;-79
2022/06/27 05:36:41;;;;;;;3.67;2.78;;;21.60;99.90;;;;;;5064625;28;20192;-81
2022/06/27 05:39:07;;;;;;;5.90;2.72;;;21.60;99.90;;;;;;5061347;28;20211;-81
2022/06/27 05:41:34;;;;;;;3.47;2.85;;;21.70;99.90;;;;;;5063344;28;20179;-81
2022/06/27 05:44:01;;;;;;;7.68;2.90;;;21.80;99.90;;;;;;5064090;28;20264;-81
2022/06/27 05:46:27;;;;;;;3.17;2.58;;;21.80;99.90;;;;;;5066259;28;20179;-82
2022/06/27 05:48:53;;;;;;;3.75;2.65;;;21.80;99.90;;;;;;5059078;28;20199;-81
2022/06/27 05:51:20;;;;;;;3.15;2.78;;;21.90;99.90;;;;;;5056741;28;20236;-81
2022/06/27 05:53:47;;;;;;;6.07;2.58;;;21.90;99.90;;;;;;5055871;28;20709;-80
2022/06/27 05:56:13;;;;;;;4.03;3.13;;;22.00;99.90;;;;;;5055119;28;20195;-80
2022/06/27 05:58:39;;;;;;;3.60;2.33;;;22.00;99.90;;;;;;5059882;28;20212;-81
2022/06/27 06:01:06;;;;;;;3.63;2.47;;;22.00;99.90;;;;;;5069099;28;20179;-80
2022/06/27 06:03:33;;;;;;;6.07;2.70;;;22.10;99.90;;;;;;5053012;28;20192;-80
2022/06/27 06:05:59;;;;;;;7.63;3.47;;;22.10;99.90;;;;;;5072645;28;20191;-80
2022/06/27 06:08:26;;;;;;;4.50;3.08;;;22.10;99.90;;;;;;5066019;28;20212;-81
2022/06/27 06:10:52;;;;;;;4.13;2.88;;;22.10;99.90;;;;;;5064669;28;20179;-84
2022/06/27 06:13:18;;;;;;;3.33;2.50;;;;;;;;;;5087146;28;20179;-81
2022/06/27 06:15:45;;;;;;;3.58;2.70;;;22.20;99.90;;;;;;5093614;28;20175;-87
2022/06/27 06:18:11;;;;;;;4.50;2.80;;;;;;;;;;5092641;28;20376;-86
2022/06/27 06:20:37;;;;;;;5.97;3.05;;;22.30;99.90;;;;;;5084665;28;20187;-84
2022/06/27 06:23:03;;;;;;;2.75;2.40;;;22.30;99.90;;;;;;5054716;28;20195;-85
2022/06/27 06:25:30;;;;;;;2.83;2.60;;;;;;;;;;5070230;28;20183;-81
2022/06/27 06:28:01;;;;;;;2.85;2.45;;;22.90;99.90;;;;;;5084769;28;20191;-88
2022/06/27 06:30:29;;;;;;;4.80;2.50;;;22.30;99.90;;;;;;5086819;28;20201;-87
2022/06/27 06:32:55;;;;;;;2.65;2.15;;;;;;;;;;5086108;28;20179;-89
2022/06/27 06:35:21;;;;;;;5.72;2.70;;;;;;;;;;5081589;28;20211;-82
2022/06/27 06:37:48;;;;;;;2.75;2.25;;;;;;;;;;5070477;28;20249;-83
2022/06/27 06:40:17;;;;;;;3.47;2.13;;;;;;;;;;5072881;28;20257;-84
2022/06/27 06:42:44;;;;;;;3.70;2.35;;;;;;;;;;5072808;28;20218;-84
2022/06/27 06:45:10;;;;;;;4.13;2.53;;;23.60;99.90;;;;;;5071360;28;20179;-83
2022/06/27 06:47:47;;;;;;;3.60;2.70;;;23.70;99.90;;;;;;5064650;28;20196;-81
2022/06/27 06:50:18;;;;;;;2.60;2.40;;;;;;;;;;5070318;28;20193;-83
2022/06/27 06:52:45;;;;;;;2.85;2.20;;;;;;;;;;5060642;28;20191;-84
2022/06/27 06:55:12;;;;;;;4.22;2.25;;;;;;;;;;5051081;28;20180;-83
2022/06/27 06:57:38;;;;;;;2.88;1.98;;;23.90;99.90;;;;;;5055085;28;20184;-83
2022/06/27 07:00:05;;;;;;;2.53;2.10;;;23.90;99.90;;;;;;5071689;28;20214;-82
2022/06/27 07:02:32;;;;;;;2.50;2.30;;;;;;;;;;5065126;28;20500;-82
2022/06/27 07:04:58;;;;;;;3.03;2.60;;;23.80;99.90;;;;;;5065812;28;20218;-85
2022/06/27 07:07:25;;;;;;;2.60;2.20;;;23.80;99.90;;;;;;5067695;28;20207;-83
2022/06/27 07:09:52;;;;;;;3.47;2.47;;;23.80;99.90;;;;;;5058113;28;20752;-82
2022/06/27 07:12:18;;;;;;;3.17;2.08;;;23.70;99.90;;;;;;5053156;28;20225;-81
2022/06/27 07:14:45;;;;;;;3.83;2.22;;;;;;;;;;5069921;28;20240;-81
2022/06/27 07:17:11;;;;;;;2.45;2.10;;;23.70;99.90;;;;;;5059003;28;20212;-82
2022/06/27 07:19:38;;;;;;;3.60;2.38;;;23.70;99.90;;;;;;5070585;28;20227;-83
2022/06/27 07:22:06;;;;;;;2.83;2.10;;;23.70;99.90;;;;;;5044494;28;20187;-83
2022/06/27 07:24:32;;;;;;;3.28;2.33;;;23.70;99.90;;;;;;5070631;28;20732;-81
2022/06/27 07:26:59;;;;;;;3.33;2.40;;;23.70;99.90;;;;;;5071238;28;20270;-82
2022/06/27 07:29:26;;;;;;;3.13;2.50;;;23.80;99.90;;;;;;5054513;28;20195;-83
2022/06/27 07:31:53;;;;;;;3.45;2.33;;;24.00;99.90;;;;;;5070553;28;20187;-81
2022/06/27 07:34:21;;;;;;;2.63;2.30;;;24.10;99.90;;;;;;5066076;28;20236;-81
2022/06/27 07:36:46;;;;;;;2.97;2.10;;;24.40;99.90;;;;;;5070367;28;20229;-81
2022/06/27 07:39:12;;;;;;;4.78;2.00;;;24.70;99.90;;;;;;5053020;28;20219;-81
2022/06/27 07:41:38;;;;;;;5.40;3.60;;;25.10;99.90;;;;;;5070104;28;20187;-81
2022/06/27 07:44:04;;;;;;;4.82;3.05;;;25.40;99.90;;;;;;5069688;28;20180;-81
2022/06/27 07:46:31;;;;;;;4.38;2.53;;;25.70;99.90;;;;;;5050661;28;20228;-81
2022/06/27 07:48:57;;;;;;;3.05;2.42;;;26.10;99.90;;;;;;5070169;28;20186;-81
2022/06/27 07:51:23;;;;;;;3.05;2.40;;;26.30;99.90;;;;;;5071159;28;20186;-80
2022/06/27 07:53:50;;;;;;;4.63;2.03;;;26.60;99.90;;;;;;5070318;28;20187;-81
2022/06/27 07:56:18;;;;;;;5.45;2.13;;;27.00;99.90;;;;;;5071797;28;20201;-81
2022/06/27 07:58:43;;;;;;;2.75;2.30;;;26.60;99.90;;;;;;5073152;28;20683;-82
2022/06/27 08:01:11;;;;;;;2.15;1.95;;;27.10;99.90;;;;;;5072951;28;20198;-82
2022/06/27 08:03:41;;;;;;;2.22;1.92;;;27.20;99.90;;;;;;5072205;28;20234;-82
2022/06/27 08:06:15;;;;;;;2.15;1.55;;;27.30;99.90;;;;;;5071717;28;20171;-83
2022/06/27 08:08:50;;;;;;;3.38;1.65;;;27.40;99.90;;;;;;5073320;28;20194;-82
2022/06/27 08:11:22;;;;;;;1.92;1.70;;;27.60;99.90;;;;;;5073033;28;20175;-83
2022/06/27 08:13:49;;;;;;;2.55;1.75;;;27.60;99.90;;;;;;5073455;28;20707;-82
2022/06/27 08:16:16;;;;;;;3.63;2.05;;;27.70;99.90;;;;;;5073197;28;20234;-81
2022/06/27 08:18:44;;;;;;;2.03;1.63;;;27.80;99.90;;;;;;5074073;28;20226;-82
2022/06/27 08:21:10;;;;;;;2.55;2.00;;;28.00;99.90;;;;;;5074124;28;20187;-83
2022/06/27 08:23:38;;;;;;;1.60;1.48;;;28.00;99.90;;;;;;5073277;28;20228;-82
2022/06/27 08:26:12;;;;;;;4.10;1.75;;;28.20;99.90;;;;;;5049210;28;20175;-83
2022/06/27 08:28:39;;;;;;;3.13;2.40;;;28.30;99.90;;;;;;5073029;28;20573;-83
2022/06/27 08:31:07;;;;;;;1.60;1.50;;;28.40;99.90;;;;;;5073640;28;20227;-83
2022/06/27 08:33:33;;;;;;;1.92;1.67;;;28.50;99.90;;;;;;5055526;28;20184;-83
2022/06/27 08:36:01;;;;;;;2.90;2.30;;;28.50;99.90;;;;;;5072989;28;20206;-83
2022/06/27 08:38:28;;;;;;;6.90;2.83;;;28.50;99.90;;;;;;5075422;28;20218;-82
2022/06/27 08:40:55;;;;;;;2.33;1.35;;;28.60;98.50;;;;;;5077900;28;20171;-83
2022/06/27 08:43:21;;;;;;;1.98;1.55;;;28.70;93.60;;;;;;5077134;28;20175;-82
2022/06/27 08:45:48;;;;;;;1.88;1.67;;;28.60;94.10;;;;;;5077581;28;20171;-82
2022/06/27 08:48:14;;;;;;;1.83;1.60;;;;;;;;;;5077636;28;20179;-84
2022/06/27 08:50:41;;;;;;;2.50;1.88;;;;;;;;;;5079674;28;20167;-83
2022/06/27 08:53:08;;;;;;;1.77;1.35;;;28.80;89.00;;;;;;5078768;28;20183;-84
2022/06/27 08:55:34;;;;;;;1.35;1.25;;;28.80;86.70;;;;;;5072228;28;20179;-83
2022/06/27 08:58:06;;;;;;;1.63;1.30;;;28.80;87.50;;;;;;5057069;28;20595;-84
2022/06/27 09:00:34;;;;;;;1.33;1.20;;;28.80;87.20;;;;;;5062145;28;20207;-83
2022/06/27 09:03:00;;;;;;;1.75;1.48;;;;;;;;;;5060105;28;20184;-83
2022/06/27 09:05:29;;;;;;;1.30;1.20;;;29.10;83.50;;;;;;5055238;28;20176;-83
2022/06/27 09:07:59;;;;;;;1.55;1.40;;;29.20;82.10;;;;;;5055747;28;20636;-83
2022/06/27 09:10:35;;;;;;;2.53;1.27;;;29.30;79.80;;;;;;5056447;28;20238;-84
2022/06/27 09:13:07;;;;;;;1.52;1.33;;;29.40;79.30;;;;;;5056593;28;20320;-83
2022/06/27 09:15:56;;;;;;;1.77;1.38;;;29.50;79.20;;;;;;5054983;28;20275;-84
2022/06/27 09:18:33;;;;;;;2.17;1.63;;;29.50;78.50;;;;;;5054464;28;20310;-83
2022/06/27 09:21:15;;;;;;;2.20;1.60;;;29.50;79.00;;;;;;5055394;28;20179;-84
2022/06/27 09:23:47;;;;;;;2.13;1.45;;;29.50;79.90;;;;;;5053898;28;20164;-84
2022/06/27 09:26:25;;;;;;;1.42;1.33;;;29.60;81.70;;;;;;5060472;28;20180;-84
2022/06/27 09:28:59;;;;;;;1.85;1.30;;;29.80;75.20;;;;;;5069574;28;20186;-83
2022/06/27 09:31:30;;;;;;;2.10;1.40;;;;;;;;;;5073155;28;20535;-84
2022/06/27 09:34:21;;;;;;;2.38;1.50;;;30.10;74.20;;;;;;5073851;28;20180;-84
2022/06/27 09:36:56;;;;;;;1.40;1.30;;;30.10;75.40;;;;;;5066246;28;20226;-85
2022/06/27 09:39:24;;;;;;;2.50;1.60;;;30.20;73.40;;;;;;5062583;28;20198;-85
2022/06/27 09:42:11;;;;;;;1.80;1.40;;;30.30;73.80;;;;;;5068796;28;20183;-85
2022/06/27 09:44:39;;;;;;;1.50;1.40;;;30.40;73.60;;;;;;5065027;28;20171;-84
2022/06/27 09:47:16;;;;;;;2.22;1.40;;;30.40;72.50;;;;;;5057990;28;20217;-84
2022/06/27 09:49:46;;;;;;;2.65;1.67;;;30.40;71.80;;;;;;5061505;28;20229;-84
2022/06/27 09:52:23;;;;;;;4.78;1.40;;;30.40;72.50;;;;;;5061549;28;20544;-84
2022/06/27 09:54:51;;;;;;;2.03;1.30;;;30.50;71.10;;;;;;5061694;28;20563;-85
2022/06/27 09:57:17;;;;;;;1.92;1.60;;;30.50;70.60;;;;;;5063307;28;20680;-84
2022/06/27 09:59:45;;;;;;;1.70;1.60;;;30.70;72.60;;;;;;5066422;28;20198;-83
2022/06/27 10:02:16;;;;;;;2.50;1.50;;;30.90;70.80;;;;;;5074298;28;20175;-82
2022/06/27 10:04:51;;;;;;;1.58;1.48;;;31.00;68.80;;;;;;5073122;28;20218;-83
2022/06/27 10:07:18;;;;;;;1.65;1.50;;;31.00;71.20;;;;;;5073187;28;20175;-83
2022/06/27 10:09:48;;;;;;;1.60;1.50;;;30.70;68.40;;;;;;5074593;28;20187;-82
2022/06/27 10:12:27;;;;;;;2.20;1.60;;;30.80;68.90;;;;;;5073247;28;20297;-83
2022/06/27 10:15:17;;;;;;;1.33;1.23;;;31.00;66.90;;;;;;5073206;28;20270;-83
2022/06/27 10:17:45;;;;;;;1.50;1.20;;;31.00;66.90;;;;;;5035435;28;1095485;-82
2022/06/27 10:20:15;;;;;;;1.63;1.52;;;31.00;66.20;;;;;;5073979;28;20310;-83
2022/06/27 10:22:41;;;;;;;1.60;1.50;;;31.00;67.40;;;;;;5073636;28;20175;-83
2022/06/27 10:25:25;;;;;;;1.60;1.50;;;31.20;65.80;;;;;;5057178;28;20181;-83
2022/06/27 10:28:12;;;;;;;2.10;1.38;;;31.40;64.00;;;;;;5066282;28;20304;-83
2022/06/27 10:30:44;;;;;;;1.60;1.40;;;31.40;66.10;;;;;;5064468;28;20176;-82
2022/06/27 10:33:29;;;;;;;2.08;1.60;;;31.60;65.60;;;;;;5063306;28;20204;-83
2022/06/27 10:35:59;;;;;;;1.50;1.40;;;31.70;63.00;;;;;;5052651;28;20183;-83
2022/06/27 10:38:26;;;;;;;1.58;1.48;;;31.40;61.20;;;;;;5074578;28;20183;-86
2022/06/27 10:40:56;;;;;;;2.70;1.52;;;31.40;63.70;;;;;;5046636;28;20238;-83
2022/06/27 10:43:42;;;;;;;1.88;1.13;;;31.40;64.30;;;;;;5059273;28;20183;-85
2022/06/27 10:46:11;;;;;;;1.23;1.13;;;31.50;62.00;;;;;;5064493;28;20180;-83
2022/06/27 10:48:45;;;;;;;1.50;1.38;;;31.70;63.00;;;;;;5068589;28;20179;-84
2022/06/27 10:51:24;;;;;;;2.17;1.23;;;31.70;60.50;;;;;;5064798;28;20178;-84
2022/06/27 10:53:52;;;;;;;1.40;1.25;;;31.80;59.10;;;;;;5058351;28;20233;-83
2022/06/27 10:56:29;;;;;;;1.77;1.50;;;31.90;59.60;;;;;;5054356;28;20226;-83
2022/06/27 10:59:00;;;;;;;2.25;1.50;;;31.90;59.30;;;;;;5053776;28;20261;-84
2022/06/27 11:01:27;;;;;;;1.55;1.45;;;32.00;59.80;;;;;;5054370;28;20196;-86
2022/06/27 11:03:53;;;;;;;1.40;1.30;;;;;;;;;;5056527;28;20644;-83
2022/06/27 11:06:19;;;;;;;1.40;1.30;;;32.00;60.40;;;;;;5070793;28;20214;-84
2022/06/27 11:08:47;;;;;;;1.55;1.45;;;32.10;60.20;;;;;;5072937;28;20195;-83
2022/06/27 11:11:25;;;;;;;1.45;1.25;;;32.10;58.50;;;;;;5073234;28;20181;-84
2022/06/27 11:13:52;;;;;;;1.42;1.23;;;32.10;60.10;;;;;;5070818;28;20574;-84
2022/06/27 11:16:24;;;;;;;1.92;1.55;;;32.10;58.00;;;;;;5072120;28;20183;-84
2022/06/27 11:18:50;;;;;;;1.50;1.40;;;32.10;58.50;;;;;;5072500;28;20304;-83
2022/06/27 11:21:22;;;;;;;1.30;1.20;;;32.10;57.80;;;;;;5071425;28;20185;-84
2022/06/27 11:23:57;;;;;;;3.63;1.42;;;32.10;58.90;;;;;;5069981;28;20183;-83
2022/06/27 11:26:46;;;;;;;1.88;1.23;;;32.20;57.30;;;;;;5070017;28;20205;-83
2022/06/27 11:32:10;;;;;;;2.17;1.70;;;32.20;57.30;;;;;;5070209;28;20229;-83
2022/06/27 11:34:40;;;;;;;1.20;1.10;;;32.10;58.30;;;;;;5073593;28;20236;-83
2022/06/27 11:37:10;;;;;;;2.63;1.77;;;32.10;57.50;;;;;;5073835;28;20203;-83
2022/06/27 11:39:36;;;;;;;1.40;1.30;;;32.00;57.40;;;;;;5072602;28;20617;-83
2022/06/27 11:42:09;;;;;;;1.50;1.40;;;31.90;58.50;;;;;;5072213;28;20175;-84
2022/06/27 11:44:35;;;;;;;3.75;2.25;;;32.00;57.90;;;;;;5072003;28;20581;-83
2022/06/27 11:47:08;;;;;;;1.27;1.17;;;31.90;59.60;;;;;;5073346;28;20193;-83
2022/06/27 11:49:40;;;;;;;1.40;1.30;;;31.90;59.00;;;;;;5073519;28;20183;-85
2022/06/27 11:52:13;;;;;;;1.77;1.50;;;31.80;59.70;;;;;;5072740;28;20211;-82
2022/06/27 11:54:45;;;;;;;2.25;1.63;;;31.90;58.70;;;;;;5072909;28;20577;-84
2022/06/27 11:57:23;;;;;;;2.78;1.70;;;31.80;58.70;;;;;;5073573;28;20259;-83
2022/06/27 11:59:50;;;;;;;2.00;1.52;;;31.70;58.70;;;;;;5073477;28;20203;-83
2022/06/27 12:02:37;;;;;;;3.05;1.58;;;31.70;59.30;;;;;;5073418;28;20179;-83
2022/06/27 12:05:13;;;;;;;1.42;1.33;;;31.50;58.90;;;;;;5071869;28;20262;-83
2022/06/27 12:08:04;;;;;;;1.50;1.40;;;31.50;59.40;;;;;;5067503;28;20222;-83
2022/06/27 12:10:35;;;;;;;1.92;1.35;;;31.40;59.10;;;;;;5072200;28;20523;-84
2022/06/27 12:13:03;;;;;;;1.50;1.40;;;31.40;60.00;;;;;;5072179;28;20183;-83
2022/06/27 12:15:28;;;;;;;1.23;1.13;;;31.50;59.20;;;;;;5055464;28;20194;-83
2022/06/27 12:17:58;;;;;;;1.45;1.35;;;31.50;59.30;;;;;;5072343;28;20456;-83
2022/06/27 12:20:28;;;;;;;1.90;1.50;;;31.40;61.90;;;;;;5072640;28;20670;-83
2022/06/27 12:22:54;;;;;;;2.15;1.92;;;31.50;58.80;;;;;;5071906;28;20652;-84
2022/06/27 12:25:20;;;;;;;1.88;1.48;;;31.50;58.80;;;;;;5083780;28;20257;-83
2022/06/27 12:27:46;;;;;;;1.90;1.50;;;31.60;58.80;;;;;;5081617;28;20178;-83
2022/06/27 12:30:13;;;;;;;2.47;1.40;;;31.70;58.10;;;;;;5076723;28;20231;-83
2022/06/27 12:32:39;;;;;;;3.15;1.42;;;31.70;55.80;;;;;;5078657;28;20198;-84
2022/06/27 12:35:06;;;;;;;2.03;1.65;;;31.70;56.20;;;;;;5086337;28;20236;-85
2022/06/27 12:37:34;;;;;;;1.50;1.40;;;31.70;57.80;;;;;;5093134;28;20213;-85
2022/06/27 12:39:59;;;;;;;1.83;1.50;;;31.50;57.20;;;;;;5096289;28;20213;-85
2022/06/27 12:42:25;;;;;;;1.33;1.23;;;31.40;57.20;;;;;;5082161;28;20156;-83
2022/06/27 12:44:51;;;;;;;1.38;1.27;;;31.50;58.50;;;;;;5050907;28;20182;-83
2022/06/27 12:47:16;;;;;;;2.92;1.35;;;31.60;58.40;;;;;;5075548;28;20179;-83
2022/06/27 12:49:42;;;;;;;1.48;1.38;;;31.50;58.10;;;;;;5069124;28;20209;-84
2022/06/27 12:52:08;;;;;;;1.80;1.67;;;31.60;59.00;;;;;;5078463;28;20251;-86
2022/06/27 12:54:33;;;;;;;1.52;1.42;;;31.60;57.50;;;;;;5078100;28;20195;-86
2022/06/27 12:57:01;;;;;;;1.55;1.40;;;31.70;56.40;;;;;;5080473;28;20207;-87
2022/06/27 12:59:27;;;;;;;1.50;1.40;;;31.60;59.00;;;;;;5087723;28;20200;-85
2022/06/27 13:01:53;;;;;;;2.75;1.40;;;31.50;56.60;;;;;;5079894;28;20581;-86
2022/06/27 13:04:19;;;;;;;2.00;1.42;;;;;;;;;;5080997;28;20183;-86
2022/06/27 13:06:44;;;;;;;1.50;1.40;;;31.10;57.30;;;;;;5052804;28;20274;-85
2022/06/27 13:09:10;;;;;;;1.30;1.20;;;31.20;58.40;;;;;;5066034;28;20187;-84